Time;durP1;ratioP1;P1;durP2;ratioP2;P2;SDS_P1;SDS_P2;PMS_P1;PMS_P2;Temp;Humidity;BMP_temperature;BMP_pressure;BME280_temperature;BME280_humidity;BME280_pressure;Samples;Min_cycle;Max_cycle;Signal;HPM_P1;HPM_P2
2022/06/21 00:01:23;;;;;;;10.23;5.30;;;;;;;21.05;92.13;98067.25;4350317;32;20110;-70
2022/06/21 00:03:51;;;;;;;9.30;5.82;;;;;;;21.04;92.24;98059.50;4350301;32;20107;-70
2022/06/21 00:06:22;;;;;;;9.20;5.53;;;;;;;21.01;92.43;98063.41;4350250;32;20108;-70
2022/06/21 00:08:50;;;;;;;7.47;5.25;;;;;;;21.05;92.51;98048.63;4350313;32;20436;-70
2022/06/21 00:11:26;;;;;;;9.63;4.93;;;;;;;21.05;92.48;98045.97;4350225;32;20091;-70
2022/06/21 00:13:53;;;;;;;9.43;4.80;;;;;;;21.05;92.58;98066.47;4350377;32;20139;-70
2022/06/21 00:16:22;;;;;;;11.75;6.90;;;;;;;21.03;92.86;98063.19;4350222;32;20087;-70
2022/06/21 00:18:49;;;;;;;8.57;5.37;;;;;;;20.95;93.50;98074.94;4349151;33;20092;-70
2022/06/21 00:21:19;;;;;;;12.32;5.80;;;;;;;20.94;93.91;98086.66;4349056;33;20088;-70
2022/06/21 00:23:47;;;;;;;8.50;5.82;;;;;;;20.88;94.59;98087.53;4350184;32;20099;-70
2022/06/21 00:26:15;;;;;;;8.50;5.95;;;;;;;20.85;94.66;98096.78;4350203;32;20115;-70
2022/06/21 00:28:43;;;;;;;14.07;6.05;;;;;;;20.84;94.52;98110.31;4349959;32;20408;-70
2022/06/21 00:31:22;;;;;;;12.40;5.75;;;;;;;20.83;93.94;98111.31;4350048;33;20083;-70
2022/06/21 00:33:50;;;;;;;9.27;5.50;;;;;;;20.84;93.14;98102.31;4349144;33;20099;-70
2022/06/21 00:36:30;;;;;;;11.57;6.47;;;;;;;20.79;92.28;98118.13;4348918;33;20115;-70
2022/06/21 00:38:58;;;;;;;6.18;4.72;;;;;;;20.77;90.84;98113.00;4350033;33;20108;-70
2022/06/21 00:41:41;;;;;;;7.03;4.43;;;;;;;20.77;89.30;98106.88;4349977;33;20121;-70
2022/06/21 00:44:14;;;;;;;10.90;4.07;;;;;;;20.76;88.10;98099.91;4349029;33;20699;-70
2022/06/21 00:47:22;;;;;;;9.13;4.87;;;;;;;20.78;87.03;98097.88;4350090;33;20099;-70
2022/06/21 00:50:00;;;;;;;6.90;4.00;;;;;;;20.73;86.98;98091.34;4318430;33;20135;-70
2022/06/21 00:52:41;;;;;;;8.43;4.10;;;;;;;20.70;86.80;98094.44;4305711;33;20205;-70
2022/06/21 00:55:15;;;;;;;6.57;4.30;;;;;;;20.71;86.40;98088.09;4318526;33;20478;-70
2022/06/21 00:57:49;;;;;;;10.65;4.30;;;;;;;20.63;86.34;98080.34;4306299;33;20798;-70
2022/06/21 01:00:31;;;;;;;5.05;3.67;;;;;;;20.63;86.03;98080.34;4306420;33;20446;-70
2022/06/21 01:03:03;;;;;;;6.20;3.78;;;;;;;20.70;85.37;98081.16;4318316;33;20099;-70
2022/06/21 01:05:32;;;;;;;8.60;4.07;;;;;;;20.60;85.27;98086.13;4306392;33;20378;-70
2022/06/21 01:07:59;;;;;;;10.73;3.92;;;;;;;20.60;85.09;98070.16;4318124;33;20640;-70
2022/06/21 01:10:28;;;;;;;4.80;3.72;;;;;;;20.55;85.61;98072.66;4306361;33;20122;-70
2022/06/21 01:13:14;;;;;;;7.12;3.90;;;;;;;20.45;85.87;98101.59;4318237;33;20147;-70
2022/06/21 01:15:45;;;;;;;6.53;3.78;;;;;;;20.43;84.99;98093.84;4318336;33;20596;-70
2022/06/21 01:18:14;;;;;;;6.15;3.33;;;;;;;20.29;85.96;98101.13;4318507;33;20334;-70
2022/06/21 01:20:47;;;;;;;6.35;3.92;;;;;;;20.28;86.48;98104.00;4306542;33;20114;-70
2022/06/21 01:23:27;;;;;;;8.65;3.87;;;;;;;20.15;87.41;98094.25;4318286;33;20136;-70
2022/06/21 01:26:10;;;;;;;5.12;3.35;;;;;;;20.08;87.43;98104.94;4319729;33;20122;-70
2022/06/21 01:28:37;;;;;;;6.18;3.85;;;;;;;20.04;87.16;98117.03;4348496;33;20476;-70
2022/06/21 01:31:06;;;;;;;7.35;4.40;;;;;;;19.96;87.33;98119.97;4349718;32;20075;-70
2022/06/21 01:33:36;;;;;;;5.60;4.07;;;;;;;19.92;87.25;98126.72;4348557;33;20088;-70
2022/06/21 01:36:21;;;;;;;7.70;4.05;;;;;;;19.87;87.39;98126.56;4349767;33;20095;-70
2022/06/21 01:38:58;;;;;;;7.97;4.30;;;;;;;19.92;87.13;98122.22;4349711;33;20143;-70
2022/06/21 01:41:49;;;;;;;6.93;3.90;;;;;;;19.88;87.12;98131.66;4348696;33;20080;-70
2022/06/21 01:44:22;;;;;;;6.57;3.58;;;;;;;19.83;86.28;98119.00;4349649;32;20091;-70
2022/06/21 01:46:50;;;;;;;4.68;3.47;;;;;;;19.72;85.68;98116.19;4349726;32;20091;-70
2022/06/21 01:49:20;;;;;;;4.75;3.62;;;;;;;19.76;85.42;98123.50;4349585;32;20091;-70
2022/06/21 01:51:56;;;;;;;5.53;3.90;;;;;;;19.72;85.15;98113.50;4348581;33;20546;-70
2022/06/21 01:54:25;;;;;;;5.97;3.50;;;;;;;19.71;84.68;98125.16;4349600;33;20142;-70
2022/06/21 01:56:53;;;;;;;6.55;3.72;;;;;;;19.71;84.54;98119.84;4349362;32;20119;-70
2022/06/21 01:59:27;;;;;;;8.73;3.87;;;;;;;19.66;82.84;98118.63;4348361;33;20161;-70
2022/06/21 02:02:01;;;;;;;5.55;3.55;;;;;;;19.75;82.21;98127.19;4349629;32;20122;-70
2022/06/21 02:04:32;;;;;;;6.20;4.50;;;;;;;19.67;82.01;98124.78;4336323;33;20445;-70
2022/06/21 02:07:07;;;;;;;5.62;4.25;;;;;;;19.61;82.05;98121.13;4348484;33;20088;-70
2022/06/21 02:09:46;;;;;;;10.82;4.32;;;;;;;19.58;82.26;98126.87;4348335;33;20100;-70
2022/06/21 02:12:14;;;;;;;6.47;4.70;;;;;;;19.56;82.42;98123.63;4349526;33;20075;-70
2022/06/21 02:14:48;;;;;;;6.87;4.65;;;;;;;19.46;82.99;98117.91;4349454;32;20087;-70
2022/06/21 02:17:30;;;;;;;6.60;4.12;;;;;;;19.50;82.85;98122.59;4348368;33;20145;-70
2022/06/21 02:20:07;;;;;;;7.80;4.15;;;;;;;19.47;83.59;98119.53;4348264;33;20092;-70
2022/06/21 02:22:34;;;;;;;5.60;4.50;;;;;;;19.39;84.00;98122.44;4348127;33;20110;-70
2022/06/21 02:25:02;;;;;;;7.30;4.80;;;;;;;19.44;84.14;98119.97;4349351;32;20075;-70
2022/06/21 02:27:33;;;;;;;8.63;4.90;;;;;;;19.25;85.11;98109.19;4348126;33;20381;-70
2022/06/21 02:30:04;;;;;;;6.15;4.78;;;;;;;19.21;83.89;98107.16;4348284;33;20104;-70
2022/06/21 02:32:37;;;;;;;4.57;3.95;;;;;;;19.19;82.12;98099.41;4348250;33;20083;-70
2022/06/21 02:35:36;;;;;;;8.05;3.67;;;;;;;19.19;79.42;98096.75;4348131;33;20434;-70
2022/06/21 02:38:06;;;;;;;4.57;3.00;;;;;;;19.17;77.75;98087.37;4349382;33;20091;-70
2022/06/21 02:40:41;;;;;;;4.53;3.33;;;;;;;19.04;76.24;98086.38;4349273;32;20134;-70
2022/06/21 02:43:13;;;;;;;7.50;3.62;;;;;;;19.06;75.90;98088.84;4349259;32;20083;-70
2022/06/21 02:45:51;;;;;;;4.72;3.33;;;;;;;18.92;75.76;98080.09;4348024;33;20095;-70
2022/06/21 02:48:28;;;;;;;5.78;3.72;;;;;;;18.92;75.59;98086.19;4348136;33;20375;-70
2022/06/21 02:51:02;;;;;;;3.55;2.67;;;;;;;18.84;75.78;98097.03;4348110;33;20165;-70
2022/06/21 02:53:30;;;;;;;;;;;;;;;18.69;76.46;98107.06;4348343;33;20587;-70
2022/06/21 02:56:14;;;;;;;4.72;3.12;;;;;;;18.66;77.02;98120.72;4349034;33;20490;-70
2022/06/21 02:58:46;;;;;;;7.60;3.60;;;;;;;18.58;77.67;98119.09;4348728;32;20166;-70
2022/06/21 03:01:29;;;;;;;6.22;3.33;;;;;;;18.51;77.83;98137.66;4349003;33;20146;-70
2022/06/21 03:03:57;;;;;;;6.62;4.15;;;;;;;18.51;78.21;98136.84;4347812;33;20087;-70
2022/06/21 03:06:26;;;;;;;5.93;3.67;;;;;;;18.40;78.90;98148.87;4347698;33;20165;-70
2022/06/21 03:09:08;;;;;;;4.15;3.30;;;;;;;18.33;79.72;98158.66;4347522;33;20405;-70
2022/06/21 03:11:40;;;;;;;6.00;4.03;;;;;;;18.26;80.59;98167.41;4347883;33;20118;-70
2022/06/21 03:14:12;;;;;;;7.30;4.10;;;;;;;18.26;81.25;98179.87;4347677;33;20094;-70
2022/06/21 03:16:42;;;;;;;5.93;4.47;;;;;;;18.22;81.82;98182.09;4349069;33;20075;-70
2022/06/21 03:19:21;;;;;;;8.73;4.10;;;;;;;18.17;82.67;98186.34;4350707;33;20492;-70
2022/06/21 03:21:49;;;;;;;6.70;4.70;;;;;;;18.15;83.08;98191.84;4349469;33;20099;-70
2022/06/21 03:24:22;;;;;;;7.60;4.78;;;;;;;18.09;83.53;98190.00;4350737;32;20091;-70
2022/06/21 03:27:03;;;;;;;7.30;4.43;;;;;;;18.07;83.64;98195.50;4350570;33;20091;-70
2022/06/21 03:29:31;;;;;;;8.07;4.65;;;;;;;18.09;83.44;98197.97;4350863;32;20169;-70
2022/06/21 03:32:00;;;;;;;8.02;4.82;;;;;;;18.20;82.81;98204.53;4349545;33;20457;-70
2022/06/21 03:34:27;;;;;;;7.15;4.32;;;;;;;18.17;82.57;98215.50;4349447;33;20160;-70
2022/06/21 03:36:57;;;;;;;7.55;4.22;;;;;;;18.21;81.83;98214.94;4350532;32;20087;-70
2022/06/21 03:42:14;;;;;;;5.00;3.87;;;;;;;18.14;81.85;98219.41;4349563;33;20438;-70
2022/06/21 03:44:45;;;;;;;4.97;3.60;;;;;;;18.07;81.09;98221.22;4350593;32;20086;-70
2022/06/21 03:47:35;;;;;;;6.12;3.50;;;;;;;18.14;79.38;98219.41;4350558;33;20079;-70
2022/06/21 03:50:09;;;;;;;3.87;2.72;;;;;;;17.99;78.34;98224.03;4349348;33;20095;-70
2022/06/21 03:52:44;;;;;;;4.85;3.20;;;;;;;17.95;76.83;98220.16;4350535;32;20121;-70
2022/06/21 03:55:50;;;;;;;5.20;3.10;;;;;;;18.01;76.95;98227.31;4349387;33;20091;-70
2022/06/21 03:59:08;;;;;;;5.72;2.80;;;;;;;18.03;75.78;98233.22;4318554;33;20076;-70
2022/06/21 04:01:50;;;;;;;4.50;2.55;;;;;;;17.95;74.90;98241.34;4289926;33;20155;-70
2022/06/21 04:04:38;;;;;;;3.22;2.50;;;;;;;17.90;75.08;98231.34;4289654;33;20151;-70
2022/06/21 04:07:19;;;;;;;3.28;2.53;;;;;;;17.84;73.94;98242.72;4289627;33;20152;-70
2022/06/21 04:10:07;;;;;;;3.25;2.60;;;;;;;17.86;72.95;98243.31;4289516;33;20141;-70
2022/06/21 04:12:51;;;;;;;3.83;2.45;;;;;;;17.95;71.79;98228.91;4277790;33;20289;-70
2022/06/21 04:15:26;;;;;;;3.35;2.33;;;;;;;17.87;70.78;98248.41;4289581;33;20514;-70
2022/06/21 04:18:06;;;;;;;3.08;2.40;;;;;;;17.95;70.56;98246.66;4289939;33;20111;-70
2022/06/21 04:20:41;;;;;;;5.12;2.25;;;;;;;17.96;68.63;98249.09;4289694;33;20148;-70
2022/06/21 04:23:19;;;;;;;5.70;2.33;;;;;;;18.05;67.12;98249.75;4289468;33;20803;-70
2022/06/21 04:25:58;;;;;;;3.05;1.65;;;;;;;17.94;66.15;98237.91;4289634;33;20148;-69
2022/06/21 04:28:40;;;;;;;2.03;1.60;;;;;;;18.00;62.77;98246.88;4299723;33;20180;-70
2022/06/21 04:31:12;;;;;;;2.28;1.35;;;;;;;17.96;62.81;98235.84;4333257;33;20095;-70
2022/06/21 04:34:18;;;;;;;3.85;2.00;;;;;;;17.94;60.08;98252.97;4320875;33;20107;-70
2022/06/21 04:36:54;;;;;;;2.22;1.70;;;;;;;17.98;62.95;98246.25;4286960;33;20768;-70
2022/06/21 04:39:37;;;;;;;2.65;1.70;;;;;;;18.12;62.90;98250.56;4292116;33;20124;-70
2022/06/21 04:42:14;;;;;;;1.77;1.42;;;;;;;18.08;61.24;98265.25;4292056;33;20084;-70
2022/06/21 04:45:02;;;;;;;2.15;1.50;;;;;;;18.11;60.74;98254.25;4292090;33;20213;-70
2022/06/21 04:47:49;;;;;;;1.90;1.60;;;;;;;18.15;61.21;98260.78;4303932;33;20156;-70
2022/06/21 04:50:27;;;;;;;1.73;1.40;;;;;;;18.14;59.88;98247.72;4304044;33;20636;-70
2022/06/21 04:53:00;;;;;;;2.87;1.58;;;;;;;18.15;58.73;98249.38;4291747;33;20088;-70
2022/06/21 04:55:49;;;;;;;2.00;1.60;;;;;;;18.15;58.23;98249.38;4291940;33;20144;-70
2022/06/21 05:01:37;;;;;;;8.20;2.05;;;;;;;18.21;56.74;98270.63;4303688;33;20472;-70
2022/06/21 05:04:23;;;;;;;1.67;1.20;;;;;;;18.24;55.50;98270.22;4304069;33;20150;-70
2022/06/21 05:06:52;;;;;;;1.40;1.10;;;;;;;18.26;56.10;98267.38;4303957;33;20108;-70
2022/06/21 05:09:21;;;;;;;4.50;1.30;;;;;;;18.32;56.46;98271.03;4303701;33;20100;-70
2022/06/21 05:11:54;;;;;;;5.50;1.33;;;;;;;18.36;54.59;98266.97;4291768;33;20142;-70
2022/06/21 05:14:26;;;;;;;2.55;1.45;;;;;;;18.30;56.05;98273.09;4346611;33;20079;-70
2022/06/21 05:16:53;;;;;;;1.80;1.15;;;;;;;18.37;55.81;98268.63;4348377;33;20521;-70
2022/06/21 05:19:29;;;;;;;3.62;1.40;;;;;;;18.45;54.86;98276.38;4349682;32;20163;-70
2022/06/21 05:22:09;;;;;;;1.92;1.37;;;;;;;18.63;54.76;98279.28;4348661;33;20079;-70
2022/06/21 05:24:36;;;;;;;2.28;1.52;;;;;;;18.56;54.85;98280.28;4348735;33;20075;-70
2022/06/21 05:27:16;;;;;;;2.50;1.37;;;;;;;18.57;54.77;98269.47;4348536;33;20126;-69
2022/06/21 05:29:46;;;;;;;1.30;1.17;;;;;;;18.45;53.66;98273.75;4349742;32;20074;-70
2022/06/21 05:32:18;;;;;;;2.17;1.12;;;;;;;18.56;53.41;98278.47;4349656;33;20106;-70
2022/06/21 05:34:52;;;;;;;8.18;1.25;;;;;;;18.47;54.18;98290.28;4349762;32;20099;-70
2022/06/21 05:37:33;;;;;;;2.25;1.50;;;;;;;18.58;54.33;98289.69;4349749;32;20155;-69
2022/06/21 05:40:39;;;;;;;1.35;0.85;;;;;;;18.59;54.78;98301.94;4348342;33;20354;-69
2022/06/21 05:43:21;;;;;;;2.22;1.08;;;;;;;18.75;51.30;98294.63;4317983;33;20539;-70
2022/06/21 05:45:53;;;;;;;2.97;1.10;;;;;;;18.55;51.85;98292.75;4306082;33;20092;-70
2022/06/21 05:48:27;;;;;;;3.67;1.00;;;;;;;18.68;53.25;98293.78;4317874;33;20473;-70
2022/06/21 05:50:54;;;;;;;3.80;1.08;;;;;;;18.69;53.40;98312.16;4317983;33;20170;-69
2022/06/21 05:53:28;;;;;;;6.53;1.25;;;;;;;18.67;53.19;98316.87;4318052;33;20178;-70
2022/06/21 05:55:57;;;;;;;0.80;0.80;;;;;;;18.65;51.23;98320.72;4317703;33;20088;-69
2022/06/21 05:58:30;;;;;;;1.77;0.85;;;;;;;18.58;51.67;98315.41;4317660;33;20124;-70
2022/06/21 06:01:03;;;;;;;4.65;1.05;;;;;;;18.54;51.98;98317.63;4317717;33;20134;-70
2022/06/21 06:03:40;;;;;;;1.10;1.00;;;;;;;18.62;52.02;98328.06;4306185;33;20112;-70
2022/06/21 06:06:12;;;;;;;1.80;0.93;;;;;;;18.71;52.58;98334.03;4317695;33;20080;-70
2022/06/21 06:08:46;;;;;;;1.30;0.90;;;;;;;18.65;52.28;98321.53;4318011;33;20108;-70
2022/06/21 06:11:14;;;;;;;;;;;;;;;18.68;53.09;98320.31;4306164;33;20127;-71
2022/06/21 06:13:43;;;;;;;1.77;1.17;;;;;;;18.78;53.03;98328.72;4318056;33;20010;-72
2022/06/21 06:16:14;;;;;;;1.20;1.10;;;;;;;18.70;52.78;98332.37;4305857;33;20088;-70
2022/06/21 06:19:17;;;;;;;1.92;0.90;;;;;;;18.81;52.27;98328.31;4317781;33;20104;-72
2022/06/21 06:21:53;;;;;;;2.45;0.90;;;;;;;18.81;51.42;98328.31;4332345;33;20623;-72
2022/06/21 06:24:25;;;;;;;4.20;0.80;;;;;;;19.18;51.08;98341.25;4308164;33;20134;-71
2022/06/21 06:26:56;;;;;;;7.87;1.12;;;;;;;18.89;50.44;98322.03;4320293;33;20436;-70
2022/06/21 06:29:44;;;;;;;1.37;1.08;;;;;;;18.84;50.06;98317.28;4320282;33;20111;-71
2022/06/21 06:32:18;;;;;;;1.52;0.82;;;;;;;18.84;49.03;98327.09;4332317;33;20122;-71
2022/06/21 06:34:49;;;;;;;2.85;0.90;;;;;;;18.65;48.05;98313.56;4332307;33;20193;-70
2022/06/21 06:37:26;;;;;;;2.05;0.90;;;;;;;18.47;47.34;98318.63;4320123;33;20096;-69
2022/06/21 06:39:53;;;;;;;3.55;0.98;;;;;;;18.51;47.97;98328.62;4332258;33;20115;-70
2022/06/21 06:42:26;;;;;;;2.53;1.50;;;;;;;18.59;47.02;98331.13;4332260;33;20130;-70
2022/06/21 06:48:32;;;;;;;2.30;1.40;;;;;;;18.66;47.79;98338.28;4332141;33;20154;-70
2022/06/21 06:51:37;;;;;;;2.08;1.00;;;;;;;18.78;48.67;98326.88;4331288;33;20142;-70
2022/06/21 06:54:15;;;;;;;1.35;0.95;;;;;;;18.87;48.52;98347.97;4332184;33;20138;-71
2022/06/21 06:57:05;;;;;;;7.53;1.30;;;;;;;18.75;47.76;98343.19;4320065;33;20115;-70
2022/06/21 06:59:33;;;;;;;1.87;1.20;;;;;;;18.91;48.90;98350.03;4345991;33;20649;-70
2022/06/21 07:02:32;;;;;;;1.45;1.10;;;;;;;19.07;48.95;98350.66;4347895;33;20134;-69
2022/06/21 07:05:23;;;;;;;1.75;1.17;;;;;;;19.17;50.04;98350.25;4347443;32;20111;-70
2022/06/21 07:07:53;;;;;;;1.55;0.90;;;;;;;19.35;49.64;98353.13;4347698;33;20095;-69
2022/06/21 07:10:23;;;;;;;1.35;0.90;;;;;;;19.07;47.35;98353.31;4348641;32;20099;-69
2022/06/21 07:12:52;;;;;;;2.78;0.88;;;;;;;19.07;48.02;98348.00;4348677;32;20107;-69
2022/06/21 07:15:40;;;;;;;12.35;1.83;;;;;;;18.97;46.97;98351.06;4347495;33;20170;-70
2022/06/21 07:18:26;;;;;;;2.65;1.00;;;;;;;19.19;47.91;98345.56;4348449;32;20118;-70
2022/06/21 07:24:34;;;;;;;3.62;1.40;;;;;;;19.01;48.73;98359.44;4348351;33;20169;-69
2022/06/21 07:27:04;;;;;;;1.33;0.90;;;;;;;19.06;48.74;98368.44;4347206;33;20146;-70
2022/06/21 07:30:00;;;;;;;5.00;1.27;;;;;;;19.37;47.54;98363.56;4346944;33;20106;-69
2022/06/21 07:32:32;;;;;;;5.30;0.90;;;;;;;19.44;48.34;98365.19;4346845;33;20143;-69
2022/06/21 07:35:09;;;;;;;2.87;1.20;;;;;;;19.79;47.80;98374.81;4348364;32;20515;-69
2022/06/21 07:37:52;;;;;;;4.30;1.20;;;;;;;20.01;46.91;98373.53;4347378;33;20462;-69
2022/06/21 07:40:22;;;;;;;4.53;1.10;;;;;;;19.90;47.09;98376.81;4348161;33;20088;-70
2022/06/21 07:43:07;;;;;;;3.10;2.33;;;;;;;19.86;45.94;98380.91;4348157;33;20134;-69
2022/06/21 07:45:38;;;;;;;;;;;;;;;19.92;43.26;98371.31;4347492;33;20554;-68
2022/06/21 07:48:15;;;;;;;17.25;1.92;;;;;;;20.02;44.28;98379.69;4346994;33;20009;-69
2022/06/21 07:50:46;;;;;;;2.30;0.90;;;;;;;20.17;43.01;98376.78;4346894;33;20587;-69
2022/06/21 07:53:18;;;;;;;3.10;1.12;;;;;;;20.11;41.36;98367.78;4346777;33;20110;-69
2022/06/21 07:55:53;;;;;;;2.00;1.05;;;;;;;19.97;41.56;98374.16;4348355;33;20142;-69
2022/06/21 07:58:33;;;;;;;4.65;1.10;;;;;;;20.21;42.11;98386.78;4346760;33;20248;-70
2022/06/21 08:06:46;;;;;;;2.12;0.93;;;;;;;20.19;41.82;98399.47;4349225;33;20715;-68
2022/06/21 08:09:37;;;;;;;4.90;0.98;;;;;;;20.49;40.72;98398.16;4350122;33;20169;-69
2022/06/21 08:12:05;;;;;;;3.60;1.10;;;;;;;20.37;39.58;98393.47;4350326;33;20079;-69
2022/06/21 08:14:34;;;;;;;2.83;1.00;;;;;;;20.50;40.27;98399.78;4349262;33;20088;-69
2022/06/21 08:17:01;;;;;;;1.77;0.65;;;;;;;20.59;40.88;98408.34;4350208;32;20095;-69
2022/06/21 08:19:35;;;;;;;29.20;1.73;;;;;;;20.47;40.89;98405.53;4350446;32;20103;-69
2022/06/21 08:22:06;;;;;;;2.28;0.90;;;;;;;20.55;40.01;98394.66;4348903;33;20083;-70
2022/06/21 08:24:52;;;;;;;8.38;1.10;;;;;;;20.45;38.85;98405.72;4350114;32;20075;-70
2022/06/21 08:30:53;;;;;;;4.70;1.15;;;;;;;20.65;39.66;98411.03;4349884;33;20257;-70
2022/06/21 08:33:26;;;;;;;2.85;0.88;;;;;;;20.73;40.08;98416.09;4349878;32;20088;-70
2022/06/21 08:36:00;;;;;;;3.78;1.00;;;;;;;20.48;38.25;98405.31;4349900;33;20083;-70
2022/06/21 08:42:32;;;;;;;2.17;1.00;;;;;;;20.56;37.59;98404.28;4349470;33;20211;-71
2022/06/21 08:45:42;;;;;;;4.65;0.98;;;;;;;20.57;37.87;98413.88;4349810;32;20103;-71
2022/06/21 08:48:59;;;;;;;3.03;0.93;;;;;;;21.04;37.63;98405.72;4349779;33;20071;-71
2022/06/21 08:51:35;;;;;;;4.78;1.45;;;;;;;21.14;36.68;98419.38;4349116;33;20098;-72
2022/06/21 08:54:10;;;;;;;8.02;0.98;;;;;;;21.00;36.87;98409.81;4350029;32;20151;-71
2022/06/21 08:57:00;;;;;;;1.80;1.05;;;;;;;21.17;36.84;98399.50;4349971;33;20471;-70
2022/06/21 09:00:03;;;;;;;3.50;1.10;;;;;;;21.18;37.48;98407.28;4348710;33;20154;-70
2022/06/21 09:03:04;;;;;;;3.28;1.08;;;;;;;21.19;35.93;98405.41;4340672;33;20099;-70
2022/06/21 09:06:18;;;;;;;6.97;0.80;;;;;;;20.90;36.13;98400.44;4349646;33;20091;-71
2022/06/21 09:09:12;;;;;;;8.07;1.10;;;;;;;20.95;37.27;98415.78;4306103;33;20096;-70
2022/06/21 09:12:03;;;;;;;9.60;1.48;;;;;;;21.17;37.72;98404.81;4318052;33;20100;-70
2022/06/21 09:14:43;;;;;;;2.20;1.00;;;;;;;21.09;37.57;98409.38;4317986;33;20107;-70
2022/06/21 09:17:10;;;;;;;1.80;1.00;;;;;;;21.21;37.35;98428.16;4315638;33;82460;-70
2022/06/21 09:19:44;;;;;;;1.95;0.70;;;;;;;21.45;37.97;98418.56;4317936;33;20166;-70
2022/06/21 09:22:22;;;;;;;4.00;1.00;;;;;;;21.52;36.20;98420.41;4318164;33;20287;-70
2022/06/21 09:24:58;;;;;;;4.95;0.70;;;;;;;21.42;36.15;98416.34;4306150;33;20670;-70
2022/06/21 09:30:50;;;;;;;3.92;0.95;;;;;;;21.49;36.25;98426.13;4317838;33;20149;-70
2022/06/21 09:33:40;;;;;;;1.50;0.90;;;;;;;21.57;36.69;98420.56;4318249;33;20582;-70
2022/06/21 09:36:23;;;;;;;5.43;0.90;;;;;;;21.85;37.14;98424.63;4317978;33;20644;-70
2022/06/21 09:39:29;;;;;;;7.25;1.55;;;;;;;21.96;36.83;98421.25;4306309;33;20108;-70
2022/06/21 09:42:13;;;;;;;2.85;0.90;;;;;;;22.06;37.22;98418.91;4317927;33;20079;-71
2022/06/21 09:48:15;;;;;;;13.90;1.15;;;;;;;21.75;38.26;98414.47;4349684;33;20179;-70
2022/06/21 09:50:54;;;;;;;2.03;0.82;;;;;;;21.73;38.03;98428.00;4349555;32;20485;-71
2022/06/21 09:53:37;;;;;;;0.82;0.80;;;;;;;21.80;38.08;98412.78;4349624;32;20084;-70
2022/06/21 09:56:19;;;;;;;1.48;0.80;;;;;;;21.91;35.85;98421.91;4349715;33;20142;-70
2022/06/21 09:59:13;;;;;;;2.50;0.90;;;;;;;21.80;37.21;98415.44;4348137;33;20110;-70
2022/06/21 10:02:02;;;;;;;3.33;0.93;;;;;;;21.93;35.63;98421.69;4348342;33;20103;-70
2022/06/21 10:04:38;;;;;;;6.72;0.90;;;;;;;21.89;36.91;98409.81;4349990;33;20106;-70
2022/06/21 10:10:57;;;;;;;0.60;0.60;;;;;;;22.36;35.55;98417.41;4349656;33;20453;-70
2022/06/21 10:13:40;;;;;;;1.55;0.77;;;;;;;22.06;34.12;98420.75;4348524;33;20457;-70
2022/06/21 10:16:48;;;;;;;2.55;0.75;;;;;;;22.29;33.54;98406.78;4349585;32;20129;-70
2022/06/21 10:19:23;;;;;;;;;;;;;;;22.47;34.62;98420.16;4349714;33;20142;-70
2022/06/21 10:22:09;;;;;;;4.87;1.20;;;;;;;22.43;34.53;98413.59;4349527;33;20347;-70
2022/06/21 10:28:23;;;;;;;0.95;0.82;;;;;;;22.52;32.49;98416.81;4349167;33;20598;-71
2022/06/21 10:30:53;;;;;;;2.55;1.02;;;;;;;22.72;34.37;98415.75;4348108;33;20095;-70
2022/06/21 10:33:31;;;;;;;4.10;0.90;;;;;;;22.74;33.15;98425.19;4349279;32;20099;-71
2022/06/21 10:36:33;;;;;;;1.27;0.90;;;;;;;22.47;34.22;98419.34;4349199;33;20795;-73
2022/06/21 10:39:19;;;;;;;3.60;0.80;;;;;;;22.69;34.65;98427.69;4317371;33;20131;-72
2022/06/21 10:48:27;;;;;;;2.72;1.17;;;;;;;22.94;35.63;98413.44;4317161;33;20493;-72
2022/06/21 10:55:04;;;;;;;3.08;1.00;;;;;;;23.50;35.31;98412.22;4317169;33;20122;-72
2022/06/21 10:57:56;;;;;;;3.25;0.88;;;;;;;23.12;35.75;98436.63;4313179;33;20112;-72
2022/06/21 11:03:35;;;;;;;3.30;1.00;;;;;;;23.16;35.14;98417.22;4317247;33;20159;-72
2022/06/21 11:09:56;;;;;;;3.67;1.17;;;;;;;23.41;33.82;98413.59;4316920;33;20229;-72
2022/06/21 11:12:54;;;;;;;1.35;0.85;;;;;;;23.83;33.54;98410.84;4317073;33;20138;-71
2022/06/21 11:15:41;;;;;;;2.87;0.90;;;;;;;23.78;33.36;98412.59;4341733;33;20091;-71
2022/06/21 11:21:49;;;;;;;5.97;1.00;;;;;;;23.61;34.75;98428.50;4348570;33;20170;-71
2022/06/21 11:28:01;;;;;;;2.15;0.98;;;;;;;23.95;34.48;98426.13;4346806;33;20105;-71
2022/06/21 11:34:28;;;;;;;3.45;0.90;;;;;;;24.02;33.10;98427.62;4348119;33;20130;-71
2022/06/21 11:40:54;;;;;;;3.70;0.90;;;;;;;23.35;33.86;98430.53;4350040;33;20149;-71
2022/06/21 11:46:57;;;;;;;2.75;0.90;;;;;;;23.87;32.97;98429.94;4349795;33;20126;-71
2022/06/21 11:53:20;;;;;;;4.32;0.80;;;;;;;23.72;32.57;98430.37;4349970;33;20134;-71
2022/06/21 12:02:53;;;;;;;1.40;0.90;;;;;;;24.53;31.31;98427.94;4349995;33;20133;-70
2022/06/21 12:05:42;;;;;;;2.05;0.90;;;;;;;24.50;29.80;98431.06;4349064;33;20122;-70
2022/06/21 12:08:34;;;;;;;3.05;0.98;;;;;;;24.61;30.19;98432.13;4349925;33;20071;-71
2022/06/21 12:11:31;;;;;;;1.75;0.73;;;;;;;24.68;30.15;98426.62;4349843;33;20521;-70
2022/06/21 12:14:13;;;;;;;5.35;0.85;;;;;;;24.49;31.51;98428.63;4337015;33;20103;-71
2022/06/21 12:20:36;;;;;;;3.87;1.10;;;;;;;24.54;29.45;98437.59;4350191;33;20106;-70
2022/06/21 12:26:36;;;;;;;4.97;1.00;;;;;;;24.84;29.55;98414.34;4318349;33;20212;-71
2022/06/21 12:29:08;;;;;;;5.07;0.90;;;;;;;24.42;29.74;98421.53;4318199;33;20147;-71
2022/06/21 12:31:41;;;;;;;5.95;1.08;;;;;;;24.72;30.18;98406.34;4318418;33;20128;-71
2022/06/21 12:37:53;;;;;;;3.47;0.90;;;;;;;25.09;29.46;98417.50;4318498;33;20180;-71
2022/06/21 12:40:36;;;;;;;1.20;0.82;;;;;;;24.96;29.63;98420.47;4318384;33;20118;-71
2022/06/21 12:43:18;;;;;;;4.00;1.30;;;;;;;24.86;29.25;98402.34;4318531;33;20433;-71
2022/06/21 12:46:09;;;;;;;7.57;1.00;;;;;;;25.40;30.39;98409.22;4306599;33;20537;-71
2022/06/21 12:48:55;;;;;;;3.05;0.90;;;;;;;25.14;29.11;98408.75;4317622;33;20183;-70
2022/06/21 12:55:13;;;;;;;5.75;0.90;;;;;;;25.18;28.24;98409.06;4318338;33;20536;-71
2022/06/21 12:57:59;;;;;;;2.50;1.17;;;;;;;25.18;26.50;98392.97;4317678;33;20104;-71
2022/06/21 13:00:57;;;;;;;1.50;0.70;;;;;;;25.22;27.24;98389.56;4336185;33;20090;-72
2022/06/21 13:07:16;;;;;;;1.75;0.90;;;;;;;24.79;28.62;98394.44;4303667;33;20157;-72
2022/06/21 13:10:15;;;;;;;0.47;0.47;;;;;;;24.53;30.07;98398.47;4303363;33;20561;-71
2022/06/21 13:13:15;;;;;;;5.47;0.70;;;;;;;24.38;29.15;98400.84;4304104;33;20148;-73
2022/06/21 13:15:45;;;;;;;4.20;0.90;;;;;;;24.71;29.74;98407.41;4303655;33;20140;-73
2022/06/21 13:19:09;;;;;;;1.55;0.80;;;;;;;24.62;30.28;98398.94;4303697;33;20690;-72
2022/06/21 13:21:45;;;;;;;1.98;0.85;;;;;;;24.23;30.23;98404.00;4260626;33;20136;-72
2022/06/21 13:24:16;;;;;;;3.30;0.90;;;;;;;24.06;31.40;98401.22;4260735;33;20101;-72
2022/06/21 13:27:05;;;;;;;2.58;0.73;;;;;;;24.35;30.99;98399.44;4248669;33;20562;-72
2022/06/21 13:29:42;;;;;;;7.25;1.02;;;;;;;24.73;30.87;98400.75;4260576;33;20462;-73
2022/06/21 13:32:18;;;;;;;1.50;0.73;;;;;;;25.24;31.04;98390.16;4260410;33;20528;-73
2022/06/21 13:34:48;;;;;;;3.00;0.90;;;;;;;25.41;30.31;98394.75;4260413;33;20121;-73
2022/06/21 13:37:21;;;;;;;6.28;0.90;;;;;;;25.39;29.43;98395.00;4260508;33;20237;-72
2022/06/21 13:40:05;;;;;;;1.90;0.70;;;;;;;25.38;30.16;98393.37;4273425;33;20163;-72
2022/06/21 13:42:55;;;;;;;1.77;1.05;;;;;;;25.79;30.81;98403.94;4289056;33;20331;-71
2022/06/21 13:45:39;;;;;;;1.62;0.57;;;;;;;26.09;29.26;98400.91;4277254;33;20189;-71
2022/06/21 13:48:17;;;;;;;1.17;0.85;;;;;;;26.07;29.07;98394.16;4289237;33;20108;-71
2022/06/21 13:50:51;;;;;;;2.62;0.90;;;;;;;25.54;29.67;98386.38;4289083;33;20142;-71
2022/06/21 13:57:32;;;;;;;1.30;1.20;;;;;;;25.74;28.41;98382.38;4349652;33;20121;-71
2022/06/21 14:00:00;;;;;;;3.85;0.98;;;;;;;25.98;28.94;98383.00;4335964;33;20127;-71
2022/06/21 14:02:33;;;;;;;2.45;0.73;;;;;;;26.05;29.58;98380.97;4349403;33;20096;-71
2022/06/21 14:05:13;;;;;;;1.87;1.00;;;;;;;26.20;29.36;98377.69;4336404;33;20118;-71
2022/06/21 14:07:49;;;;;;;3.62;0.70;;;;;;;25.83;28.77;98380.94;4336184;33;20103;-71
2022/06/21 14:10:46;;;;;;;1.70;0.75;;;;;;;26.27;29.71;98383.69;4349366;33;20080;-71
2022/06/21 14:13:37;;;;;;;4.07;0.95;;;;;;;26.67;29.05;98377.22;4349515;33;20127;-71
2022/06/21 14:16:17;;;;;;;1.50;0.73;;;;;;;26.48;29.40;98365.97;4336510;33;20126;-71